Create Custom Reports and Graphics: Custom Report

North Region Latest Observations

Map

10 Minute Data

Winnemucca/Elko Latest Observations

Map

10 Minute Data

South Region Latest Observations

Map

10 Minute Data

Latest Observation

67 Stations

10 Minute Data
as of 5/9/26 12:57 AM PDT
Station Date Time Temp (°F) RH (%) Dew Pt (°F) Wind Spd (mph) Wind Dir (°) Wind Gust (mph) Wind Gst Dir (°) Latest Rain (In) Soil Moist (%) Soil Temp (°F) Daily Rain (In) Daily Min Temp (°F) Daily Max Temp (°F) Daily Max Wind (mph)
Hobart Mills 5/9/26 0050 42.9   5.9 82   6 37.8   7.8 2.6   0.1 WSW | 243 3.7   0.1 SW | 228 0.00 - 32.0   0.0 0.03 28.9   7.7 70.6   1.0 8.6   0.4
Prosser Dam 5/9/26 0050 44.5   4.9 90   3 41.8   5.6 1.8   0.8 W | 277 3.1   0.9 WNW | 295 0.00 22.3   1.1 53.4   0.7 0.00 28.7   8.1 71.8   1.5 22.2   0.5
West Incline Village 5/9/26 0050 50.6   2.9 59   14 36.8   9.3 2.6   0.4 NNE | 24 3.1   0.6 NNE | 23 0.00 32.6   0.7 46.9   0.5 0.00 42.5   2.2 64.9   0.3 14.8   4.2
Incline Village (Fairview Blvd) 5/9/26 0050 51.1   0.5 55   25 35.6   14.1 0.0   1.0 N | 0 0.0   2.7 NE | 41 0.00 26.1   0.4 53.2   1.2 0.00 44.4   1.3 66.6   1.8 11.4   7.4
Incline Village (Diamond Peak) 5/9/26 0050 51.1   2.2 57   24 36.4   15.0 1.1   1.1 SW | 225 2.6   2.6 SW | 216 0.00 9.3   0.3 50.4   0.9 0.00 45.1   0.9 63.2   0.7 7.5   8.3
Incline Village (Mill Creek) 5/9/26 0050 49.5   3.1 60   8 36.1   6.6 1.2   0.1 ENE | 76 3.4   1.0 ENE | 61 0.00 11.0   0.1 47.2   0.7 0.00 41.1   3.9 67.1   2.1 15.5   0.9
Incline Village (Lakeshore Blvd) 5/9/26 0050 44.4   1.7 74   11 36.4   5.7 0.9   0.5 NE | 55 3.0   1.1 ENE | 67 0.00 30.7   1.6 55.4   0.7 0.00 34.0   6.1 64.3   2.3 5.5   6.7
Glenbrook 5/9/26 0050 45.8   2.6 78   3 39.2   1.6 0.0   1.5 N | 0 0.0   2.9 E | 88 0.00 44.3   0.1 46.3   0.3 0.00 37.5   4.1 66.5   2.3 5.7   0.9
Zephyr Cove 5/9/26 0040 50.5   2.9 58   16 36.1   3.6 0.1   0.2 NNW | 332 1.1   0.7 NNW | 339 0.00 - 34.3   0.0 0.00 39.7   4.0 68.2   1.5 6.8   0.1
Kingsbury Grade 5/9/26 0050 46.5   3.8 59   24 33.0   5.0 2.8   2.8 NNE | 22 4.1   4.1 ENE | 65 0.00 8.6   0.2 57.4   1.2 0.00 36.4   4.9 69.2   0.8 13.7   2.7
South Daggett Pass (Ridge) 5/9/26 0050 53.8   8.5 43   31 31.8   5.5 0.6   3.9 ESE | 110 2.0   8.4 ENE | 63 0.00 6.7   0.1 49.9   0.8 0.00 41.0   4.1 62.6   0.8 16.9   5.6
Palomino Valley 5/9/26 0050 55.2   0.9 51   3 37.3   2.7 1.8   1.8 ESE | 122 3.7   3.1 SE | 129 0.00 7.1   0.0 71.0   1.5 0.00 41.6   4.2 79.8   0.5 24.3   4.4
East Cold Springs 5/9/26 0050 56.7   2.5 55   2 40.7   3.1 7.8   3.1 WSW | 252 10.1   5.1 WSW | 246 0.00 1.8   0.1 60.2   0.3 0.00 45.0   4.7 74.2   0.8 22.6   2.2
Peavine 5/9/26 0050 57.3   2.4 51   24 39.2   17.9 0.1   5.5 NNE | 22 3.0   6.0 NNW | 336 0.00 - 53.4   0.0 0.00 45.3   6.9 70.7   1.0 24.1   1.2
West Verdi Peak 5/9/26 0050 50.6   2.5 63   25 38.5   10.4 1.9   0.4 NNW | 333 3.2   2.1 NNW | 330 0.00 19.6   1.2 56.4   0.5 0.00 43.7   3.9 71.6   1.4 19.6   4.1
West Verdi 5/9/26 0050 55.2   0.5 57   18 40.2   10.4 1.5   0.2 S | 176 4.8   0.5 W | 265 0.00 8.0   0.2 66.5   1.0 0.00 42.6   7.2 76.0   1.1 20.2   5.0
South Verdi 5/9/26 0050 57.8   0.2 51   22 39.8   14.6 10.8   10.3 WSW | 248 14.7   10.7 WSW | 248 0.00 16.4   0.2 65.0   1.9 0.00 40.6   9.3 73.9   1.9 27.1   7.8
Northwest Reno 5/9/26 0050 62.1   0.1 44   25 40.1   19.7 3.2   16.8 NNE | 14 9.2   15.8 N | 0 0.00 24.2   0.1 67.8   1.0 0.00 48.8   5.8 76.9   1.6 28.0   9.7
North Lawton 5/9/26 0050 58.9   1.2 49   20 39.9   13.7 7.8   3.1 WSW | 242 11.2   3.5 WSW | 246 0.00 - 60.4   21.3 0.00 47.2   5.5 77.0   1.3 22.0   7.3
West Reno (Mogul) 5/9/26 0050 63.2   5.7 42   11 39.9   12.5 6.1   2.4 WSW | 248 8.1   0.1 W | 262 0.00 36.6   0.6 63.2   0.9 0.00 47.4   3.5 77.2   1.8 17.3   13.0
Caughlin (Hunter Lake Trail) 9/16/25 0800 59.7   3.5 41   11 35.9   2.7 0.0   0.0 N | 0 0.0   0.0 ENE | 66 0.00 15.7   0.0 69.8   0.5 0.00 55.7   3.2 67.7   9.1 9.4   0.9
ArrowCreek 5/9/26 0050 59.1   1.0 45   14 37.7   10.2 3.0   7.0 S | 184 5.0   7.3 SSE | 162 0.00 - 32.0   0.0 0.00 46.0   5.6 77.0   0.8 26.0   2.5
Tracy 5/9/26 0050 65.9   3.3 37   5 38.8   6.4 8.0   0.4 WSW | 247 13.4   2.1 WSW | 243 0.00 8.1   0.0 69.5   1.4 0.00 51.5   4.1 81.2   1.5 24.0   10.7
Virginia Highlands 5/9/26 0050 58.6   4.2 46   21 38.1   18.7 3.1   1.4 WNW | 288 4.2   1.2 W | 276 0.00 8.2   0.2 58.6   1.1 0.00 49.4   3.9 72.8   0.8 19.6   0.6
Virginia City 5/9/26 0050 61.0   4.2 35   11 33.4   12.8 19.6   14.0 NNW | 342 24.3   16.1 NNW | 346 0.00 8.5   0.0 60.6   1.4 0.00 53.3   1.1 71.1   1.1 29.4   1.9
Six Mile Canyon 9/9/25 0630 60.2   9.6 37   6 33.7   4.8 4.1   2.5 W | 277 6.1   2.9 WNW | 286 0.00 12.5   0.0 75.5   0.7 0.00 57.9   7.6 64.4   1.9 7.0   3.9
Mt Rose Highway 4/30/26 0510 40.8   4.7 47   13 22.3   1.3 2.3   0.2 WSW | 243 4.8   2.1 WSW | 246 0.00 24.1   0.3 43.0   0.8 0.00 40.5   4.7 43.0   5.3 7.7   0.4
Pleasant Valley 5/9/26 0050 55.1   3.7 51   12 37.3   10.2 2.1   1.6 WSW | 253 4.2   3.1 W | 272 0.00 2.8   0.0 67.1   1.7 0.00 40.9   6.9 76.9   1.6 19.6   6.0
New Washoe City 5/9/26 0050 56.2   4.2 51   6 38.3   7.3 1.4   3.9 NNE | 26 4.7   4.0 ENE | 70 0.00 4.4   0.0 62.9   0.9 0.00 44.2   3.1 75.5   1.3 20.9   6.4
Franktown Creek 5/9/26 0050 52.6   0.2 53   22 36.2   12.6 1.0   1.0 NW | 318 2.4   2.1 NNW | 341 0.00 11.2   0.0 58.7   1.1 0.00 43.2   3.3 75.7   2.1 18.5   8.4
Musgrove Creek 5/9/26 0050 58.3   0.3 44   13 36.8   8.1 1.3   3.5 SW | 228 2.6   9.3 WSW | 250 0.00 41.7   3.2 54.7   0.6 0.00 52.6   1.5 72.7   1.4 15.2   5.3
East Carson 11/23/24 0110 28.6   28.4 - - 4.7   11.0 SW | 220 14.7   10.1 SW | 219 0.02 - 50.9   0.1 0.02 -25.9   79.1 42.9   14.6 16.0   10.7
Kings Canyon 5/9/26 0050 52.9   5.0 49   6 34.1   7.7 4.4   1.2 S | 182 7.0   2.9 S | 171 0.00 14.6   0.4 62.2   0.5 0.00 43.4   4.0 74.3   1.3 18.9   5.2
Carson City (Voltaire Canyon) 5/9/26 0050 63.4   3.5 35   7 35.5   1.2 2.8   9.1 SW | 218 4.8   11.3 SSW | 208 0.00 2.8   0.0 63.4   1.5 0.00 52.0   2.1 75.6   1.4 25.2   1.7
Jacks Valley 5/9/26 0050 55.8   1.1 44   6 34.3   2.1 1.1   0.1 N | 6 2.9   0.4 NNE | 13 0.00 13.4   0.3 69.9   2.1 0.00 46.5   2.7 75.0   1.0 23.8   7.6
Genoa 5/9/26 0050 57.4   2.1 38   3 32.3   0.1 2.0   1.1 SW | 217 3.7   0.9 SSW | 210 0.00 7.3   0.8 63.0   1.4 0.00 44.7   3.1 79.3   2.6 16.0   6.3
South Genoa (Walleys Hot Springs) 5/9/26 0050 53.0   0.9 56   4 37.8   0.9 2.9   1.0 SSE | 148 7.3   3.4 SSE | 166 0.00 14.0   0.1 66.3   1.4 0.00 40.3   4.0 77.8   0.0 28.8   5.7
SW Gardnerville (HWY 88) 5/9/26 0050 50.1   2.7 67   3 39.7   1.5 5.5   2.2 N | 6 7.8   2.5 N | 0 0.00 3.4   0.0 61.7   1.0 0.00 37.3   3.9 76.2   0.3 23.1   4.3
Sheridan 5/9/26 0050 55.2   3.4 48   6 35.8   0.2 4.1   1.2 WNW | 294 5.7   1.2 W | 280 0.00 3.9   0.7 65.1   1.5 0.00 42.6   2.0 78.1   0.4 26.2   3.3
Ruhenstroth 5/9/26 0050 53.9   0.0 54   1 37.4   0.7 1.0   0.1 ESE | 118 3.6   0.4 SSE | 148 0.00 12.6   0.1 65.0   1.0 0.00 43.0   1.9 78.0   0.4 22.6   0.5
Double Spring 5/9/26 0050 47.0   1.0 62   8 34.6   2.3 1.0   0.4 NW | 309 3.1   0.2 NW | 310 0.00 31.5   0.1 62.8   1.9 0.00 38.8   0.8 73.8   1.7 32.0   5.1
North Topaz Lake 5/9/26 0050 63.8   1.9 26   5 28.2   6.5 6.0   0.3 NW | 320 8.3   0.6 NW | 326 0.00 9.5   0.0 64.6   2.6 0.00 56.6   2.1 76.3   1.2 28.2   5.1
Wild Oat Mountain 5/9/26 0050 59.8   2.2 34   2 31.7   0.5 4.0   3.2 NNW | 339 6.5   2.7 NW | 323 0.00 16.9   0.1 63.2   1.1 0.00 55.1   1.4 74.7   1.4 24.3   2.0
Smith Valley 5/9/26 0050 58.4   1.3 40   2 34.3   0.0 2.1   0.2 SSW | 204 5.8   0.2 SE | 135 0.00 5.9   0.1 68.2   1.5 0.00 45.6   3.8 80.8   0.4 21.5   2.7
Pine Grove Mountain 5/9/26 0050 53.4   1.8 36   10 27.1   9.4 6.0   2.8 N | 352 9.1   4.5 NNW | 348 0.00 20.7   0.7 57.0   2.3 0.00 47.4   1.7 66.8   2.1 25.3   3.9
Paradise Hill 5/9/26 0050 57.3   7.3 25   1 21.4   4.9 4.7   6.2 NW | 315 7.0   4.8 NW | 309 0.00 8.0   0.0 64.5   0.5 0.00 42.0   3.7 78.7   3.0 27.0   6.5
Winnemucca 5/9/26 0050 62.1   1.3 21   1 21.2   2.7 10.6   4.3 E | 80 14.9   5.7 ENE | 70 0.00 6.0   0.0 64.5   0.6 0.00 51.8   1.3 79.4   1.8 28.1   6.6
NE Elko 5/9/26 0050 56.7   12.6 29   10 24.5   3.7 0.0   0.0 NNE | 27 1.4   1.4 NNE | 32 0.00 12.6   0.0 64.1   1.4 0.00 33.8   4.1 77.8   1.4 25.1   6.5
North Elko 5/9/26 0050 56.8   4.1 28   0 24.0   3.1 4.1   2.2 SE | 134 9.9   1.2 SSE | 162 0.00 28.6   0.1 62.0   1.7 0.00 47.0   2.1 75.0   0.4 26.1   8.0
South Elko 5/9/26 0050 53.5 32   37 24.0 5.5   0.2 NNE | 26 7.7   1.1 NNE | 28 0.00 18.5   0.0 62.4   1.5 0.00 52.8   2.5 - 26.0   5.5
Lamoille 1/28/26 1720 33.2   0.5 65   17 22.8   6.3 5.8   1.5 SSE | 166 7.7   1.9 SE | 139 0.00 12.2   0.0 33.4   0.1 0.02 23.5   2.0 36.5   5.9 25.6   17.4
Reid Gardner Sub 5/9/26 0050 73.8   0.7 20   2 29.7   3.5 0.0   0.1 N | 0 0.0   1.9 ENE | 57 0.00 26.0   0.3 78.4   1.2 0.00 54.2   1.9 101.2   7.6 17.1   5.7
Corn Creek 5/9/26 0050 79.2   3.7 15   1 28.1   2.1 8.1   5.4 SW | 215 10.7   5.1 SW | 223 0.00 4.0   0.1 83.6   2.9 0.00 71.2   9.1 93.9   4.2 28.0   7.8
Lucky Strike 5/9/26 0050 71.2   0.8 14   1 19.6   0.5 11.4   9.1 WSW | 238 15.8   9.8 SW | 225 0.00 4.6   0.0 76.3   2.5 0.00 69.2   12.1 82.9   5.4 35.3   15.5
Lower Angel Peak 5/9/26 0050 63.4   4.4 19   4 20.9   0.6 5.3   0.0 S | 177 8.8   1.7 S | 178 0.00 10.0   0.2 62.2   2.5 0.00 56.8   10.8 78.5   6.2 28.9   10.2
Angel Peak 5/9/26 0050 58.0   2.1 21   2 18.0   0.3 6.4   6.4 WNW | 289 8.9   15.8 W | 280 0.00 4.1   0.6 59.2   2.5 0.00 56.9   10.5 73.8   10.4 33.0   6.0
Upper Kyle Canyon 5/9/26 0050 54.0   0.7 26   1 19.7   1.3 3.9   0.5 NNW | 340 7.1   0.1 N | 354 0.00 13.2   0.2 61.4   2.1 0.00 48.2   4.1 69.8   3.3 22.1   5.1
Mt Charleston 5/9/26 0050 59.6   3.4 24   2 22.9   0.8 5.1   1.9 W | 262 7.8   1.2 WNW | 298 0.00 18.2   0.1 51.6   1.3 0.00 51.9   5.7 71.6   4.6 15.0   1.6
Mid Kyle Canyon 5/9/26 0050 61.1   2.5 23   2 22.9   0.1 11.6   1.7 WNW | 297 18.8   3.8 WNW | 299 0.00 7.1   0.0 65.8   2.5 0.00 56.4   7.5 78.0   5.3 32.0   11.8
Blue Diamond 5/9/26 0050 82.2   1.1 18   4 34.3   6.8 9.1   0.3 WNW | 299 14.4   3.5 WNW | 294 0.00 3.1   0.0 75.9   2.0 0.00 68.6   18.5 92.4   5.4 24.5   6.0
Artesian Sub 5/9/26 0050 85.5   7.4 15   4 33.1   0.2 0.6   0.2 S | 184 3.8   0.9 SSE | 167 0.00 13.1   0.1 75.2   0.6 0.00 70.2   3.8 102.2   6.7 15.3   4.6
North Henderson 5/9/26 0050 89.6   9.9 14   5 33.5   0.4 6.8   6.3 SW | 228 11.7   9.7 S | 191 0.00 9.5   0.8 82.5   1.7 0.00 72.9   7.6 101.9   7.4 19.8   7.4
Sandy Valley 5/9/26 0050 81.8   3.8 21   3 37.9   7.5 0.3   1.7 NNE | 27 3.1   2.0 N | 11 0.00 4.6   0.1 86.7   2.7 0.00 68.7   9.4 95.1   5.1 31.9   12.8
Searchlight 5/9/26 0050 77.6   6.4 26   4 39.7   10.0 9.2   4.8 NW | 308 14.5   7.0 NW | 312 0.00 4.9   0.1 83.7   3.1 0.00 68.5   12.3 92.9   6.0 29.8   7.2
Laughlin 5/9/26 0050 91.5   4.8 18   6 41.9   13.5 6.3   3.9 SSW | 192 11.2   5.3 SSW | 212 0.00 4.2   0.0 88.0   2.2 0.00 73.6   4.7 105.7   6.0 19.6   3.4
31Mission Hills 5/9/26 0050 87.9   7.4 13   0 31.3   6.1 8.7   1.6 SSW | 206 15.9   6.2 SSW | 206 0.00 3.8   0.0 89.0   3.2 0.00 74.2   6.2 97.6   6.4 28.4   10.6
32 Enterprise Sierra Cliffs 5/9/26 0050 81.4   2.3 14   2 28.5   5.0 10.2   4.0 SW | 233 12.7   5.8 WSW | 239 0.00 2.3   0.0 83.1   3.5 0.00 73.0   6.1 94.6   5.8 25.7   7.2
Max     91.5 90 41.9 19.6 - 24.3 - 0.00 44.3 89.0 0.03 74.2 105.7 35.3
Avg     60.0 41 33.4 4.3 - 7.0 - 0.00 13.2 63.0 - - - -
Min     42.9 13 18.0 0.0 - 0.0 - 0.00 1.8 32.0 0.00 28.7 62.6 5.5

Latest Observation

67 Stations

Daily Data
as of 5/9/26 12:57 AM PDT
Station Date Daily Max Temp (°F) Daily Min Temp (°F) Daily Max RH (%) Daily Min RH (%) Wind Spd (mph) Wind Dir (°) Daily Max Wind (mph) Max Wind Dir (°) Time of Max Wind Daily Rain (In) Weekly Precip (In) Season Precip (In) Soil Moist (%) Fuel Temp (°F) Fuel Moisture (%) MinBV Day (V)
Hobart Mills 12/23/25 51.8   11.3 33.9   2.1 88   12 42   34 2.1   1.7 SW | 224 18.4   8.6 WSW | 240 2307 0.65 6.21 15.12 - 37.6   2.8 42   19 8.0   0.7
Prosser Dam 5/7/26 70.2   0.6 36.9   0.8 98   0 27   1 3.8   0.9 WSW | 240 21.7   1.6 WSW | 258 1537 0.00 0.83 8.47 23.9   1.0 56.9   1.0 11   6 12.6   0.0
West Incline Village 5/7/26 65.2   2.2 44.8   3.1 86   8 27   1 3.1   0.9 NNE | 31 19.0   6.1 S | 177 1358 0.00 1.36 7.94 33.7   0.8 58.0   1.4 10   8 12.5   0.0
Incline Village (Fairview Blvd) 5/7/26 64.9   1.2 45.7   4.5 91   6 30   1 1.6   0.6 SSW | 211 18.9   8.7 WSW | 253 1613 0.00 1.30 7.48 26.7   0.6 58.8   2.1 11   7 12.6   0.1
Incline Village (Diamond Peak) 5/7/26 62.6   2.2 46.0   3.3 86   1 32   1 0.0   0.0 N | 0 15.8   5.3 SE | 141 1157 0.00 0.10 0.51 9.6   0.2 -11.4   0.1 - 12.4   0.1
Incline Village (Mill Creek) 5/7/26 64.9   0.5 45.0   4.6 93   1 31   5 1.4   0.7 WSW | 240 16.4   7.8 SSW | 205 1448 0.00 1.27 7.18 11.3   0.2 - - 12.4   0.1
Incline Village (Lakeshore Blvd) 5/7/26 62.0   0.2 40.2   3.8 98   1 52   10 2.8   1.6 SSW | 194 12.2   6.1 SSW | 206 1657 0.00 1.15 7.20 33.5   0.7 61.7   2.6 17   2 12.4   0.0
Glenbrook 5/7/26 64.2   0.9 41.6   3.2 96   1 43   13 1.8   0.3 W | 265 6.6   1.2 WNW | 283 1531 0.00 1.09 5.88 44.3   0.0 54.6   2.0 15   6 12.6   0.0
Zephyr Cove 5/7/26 66.7   1.6 43.7   2.1 93   4 29   2 0.0   0.0 N | 0 7.0   2.0 S | 182 1200 0.00 0.02 0.68 - 43.6   2.9 - 12.6   0.2
Kingsbury Grade 5/7/26 68.3   2.5 41.3   3.2 94   2 28   1 1.2   0.0 WSW | 252 10.9   1.9 SW | 230 1518 0.00 0.95 5.82 7.0   0.2 57.0   3.3 10   5 12.5   0.0
South Daggett Pass (Ridge) 5/7/26 61.8   1.5 44.8   3.4 84   8 31   5 3.2   1.4 WNW | 283 22.5   11.6 W | 259 1526 0.00 0.73 4.05 6.8   0.1 54.8   1.0 11   6 12.5   0.0
Palomino Valley 5/7/26 80.3   1.9 45.8   0.0 85   2 14   1 6.4   3.4 W | 266 28.7   8.0 WSW | 252 1138 0.00 0.27 1.41 7.0   0.1 66.4   1.0 2   0 12.6   0.0
East Cold Springs 5/7/26 75.0   1.9 49.8   2.4 73   8 20   1 10.0   2.7 W | 274 24.8   4.5 W | 274 1519 0.00 0.68 2.09 1.8   0.1 65.8   0.9 10   3 12.7   0.0
Peavine 5/7/26 71.7   2.1 52.2   2.7 61   8 20   1 6.1   1.4 SW | 231 25.3   6.8 SSW | 198 2054 0.00 0.67 2.14 - - - 12.5   0.0
West Verdi Peak 5/7/26 70.1   0.2 47.6   4.6 78   10 22   3 3.2   0.6 WSW | 256 23.7   7.6 WNW | 286 1448 0.00 0.78 6.39 21.4   0.8 63.7   0.6 9   4 12.6   0.0
West Verdi 5/7/26 75.0   0.7 49.8   4.4 78   6 18   1 4.8   1.6 WSW | 245 25.2   8.9 W | 264 1437 0.00 0.65 5.92 8.1   0.1 64.6   0.7 11   3 12.6   0.0
South Verdi 5/7/26 72.0   0.4 50.0   3.4 75   2 23   2 18.4   9.8 WSW | 248 34.9   12.4 WSW | 248 1537 0.00 0.57 4.81 16.7   0.2 65.2   1.4 8   2 12.7   0.0
Northwest Reno 5/7/26 75.3   0.2 54.6   1.4 62   6 17   1 15.5   6.7 W | 268 37.6   10.4 W | 271 2212 0.00 0.33 1.33 23.9   0.3 -17.7   0.0 - 12.6   0.0
North Lawton 5/7/26 75.7   1.4 52.7   4.0 67   5 18   0 10.5   4.2 WSW | 239 29.3   2.5 WSW | 252 1515 0.00 0.44 2.14 - - - 12.6   0.0
West Reno (Mogul) 5/7/26 75.4   1.2 50.9   1.4 73   1 12   4 8.0   3.0 WSW | 248 30.3   7.9 SW | 215 2151 0.00 0.34 4.24 37.6   0.5 69.9   1.5 3   2 12.5   0.0
Caughlin (Hunter Lake Trail) 9/15/25 78.6   1.3 52.5   3.7 58   7 23   2 4.2   2.5 S | 173 13.0   20.5 NNE | 31 1309 0.00 0.32 8.05 15.7   0.1 67.4   0.5 7   1 12.7   0.0
ArrowCreek 5/7/26 76.2   2.2 51.6   2.5 68   5 17   1 5.6   0.1 WSW | 246 23.5   4.7 SW | 216 1553 0.00 0.69 5.25 - - - 12.4   0.0
Tracy 5/7/26 82.7   3.6 55.6   1.6 63   5 14   2 9.1   3.5 W | 262 34.6   16.3 W | 260 1614 0.00 0.37 1.23 8.0   0.1 72.1   2.3 8   3 12.7   0.0
Virginia Highlands 5/7/26 72.0   1.9 53.3   2.2 62   4 21   4 4.3   0.4 W | 261 19.0   0.4 SW | 215 1706 0.00 0.44 2.15 8.4   0.3 64.8   1.4 9   4 12.6   0.0
Virginia City 5/7/26 70.0   0.4 54.3   4.8 59   9 20   4 6.2   2.0 SW | 219 27.6   3.4 SSW | 194 1541 0.00 0.41 1.86 8.4   0.1 62.7   0.9 7   4 12.7   0.0
Six Mile Canyon 9/8/25 98.8   16.5 50.2   7.6 44   3 11   1 7.2   0.3 WSW | 252 27.0   4.6 SSE | 159 1325 0.00 0.00 0.89 12.6   0.1 69.7   3.0 4   0 12.4   0.2
Mt Rose Highway 4/29/26 56.6   7.9 35.6   4.1 63   16 31   6 2.2   0.0 NW | 305 10.8   4.2 NE | 35 1152 0.00 0.08 4.93 24.3   0.3 47.6   8.0 3   0 12.4   0.0
Pleasant Valley 5/7/26 75.3   0.4 47.8   2.6 78   5 23   5 5.8   2.4 SSW | 210 25.6   7.8 SSW | 200 1435 0.00 0.49 2.52 2.8   0.0 68.1   2.1 9   4 12.6   0.0
New Washoe City 5/7/26 74.2   0.8 47.3   2.0 77   4 23   6 6.7   2.1 SW | 215 27.3   6.3 WSW | 243 1349 0.00 0.45 1.76 4.5   0.0 65.4   2.2 9   4 12.6   0.1
Franktown Creek 5/7/26 73.6   1.2 46.5   2.5 84   0 15   3 2.9   1.3 SW | 217 27.0   11.8 S | 183 1441 0.00 0.64 5.97 11.2   0.0 61.5   2.9 10   4 12.6   0.0
Musgrove Creek 5/7/26 71.2   0.0 54.1   4.7 65   5 22   3 2.9   0.5 SSW | 204 20.5   8.0 SE | 133 1547 0.00 0.97 8.00 45.0   0.1 64.6   2.4 13   5 12.6   0.0
East Carson 11/22/24 63.8   0.3 41.7   4.6 85   21 21   9 14.9   6.0 SW | 224 46.6   12.7 S | 171 1835 0.05 0.05 4.48 2.5   0.0 53.9   0.3 9   0 12.6   0.0
Kings Canyon 5/7/26 73.0   0.5 47.1   3.9 74   7 23   6 4.1   0.1 S | 188 24.1   2.4 SSW | 211 2111 0.00 0.66 4.52 15.0   0.1 66.8   1.5 6   3 12.6   0.0
Carson City (Voltaire Canyon) 5/7/26 74.2   0.4 54.2   4.4 63   10 21   5 10.2   2.4 SW | 220 27.0   5.2 SW | 229 2321 0.01 1.24 1.33 2.8   0.0 -10.8 - 12.7   0.0
Jacks Valley 5/7/26 74.0   0.6 49.2   4.7 63   19 21   5 6.2   2.0 WSW | 244 31.4   10.8 S | 190 1433 0.00 0.52 2.50 13.8   0.0 64.1   0.4 9   5 12.7   0.0
Genoa 5/7/26 76.7   0.5 47.8   2.0 79   5 22   6 1.9   0.9 SW | 224 22.4   10.3 SE | 138 2150 0.00 0.48 5.22 8.7   1.2 65.3   2.5 11   7 12.3   0.0
South Genoa (Walleys Hot Springs) 5/7/26 77.7   1.2 44.3   1.5 90   4 20   8 4.6   1.2 NW | 318 34.5   13.9 WSW | 251 2145 0.00 0.40 3.35 14.0   0.1 67.2   1.5 8   4 12.5   0.0
SW Gardnerville (HWY 88) 5/7/26 75.9   1.4 41.2   0.4 88   3 17   1 6.0   2.3 WNW | 290 27.4   13.8 W | 271 1556 0.00 0.04 0.60 3.5   0.0 61.9   0.2 10   3 12.5   0.0
Sheridan 5/7/26 77.7   2.9 44.6   0.7 77   6 13   3 5.5   2.5 WSW | 256 29.6   17.8 W | 261 1455 0.00 0.40 3.46 5.1   0.8 66.4   0.6 9   4 12.6   0.0
Ruhenstroth 5/7/26 78.4   3.1 44.9   2.4 73   13 15   2 4.2   1.2 WSW | 252 23.1   6.1 S | 183 1627 0.00 0.64 2.06 12.6   0.0 64.5   3.0 9   5 12.7   0.0
Double Spring 5/7/26 72.1   2.9 37.9   0.5 87   4 22   1 5.2   0.6 NW | 320 27.0   7.0 NW | 318 1224 0.00 0.90 2.44 31.0   0.4 60.2   2.4 11   6 12.6   0.0
North Topaz Lake 5/7/26 75.1   4.3 54.5   7.2 49   22 19   2 5.4   2.1 W | 270 23.1   7.2 WSW | 242 1233 0.00 0.59 1.68 9.5   0.2 67.2   4.9 8   7 12.6   0.1
Wild Oat Mountain 5/7/26 73.2   3.9 53.7   6.7 49   21 20   4 6.1   2.9 WNW | 293 26.3   10.8 W | 264 1735 0.00 0.52 1.77 16.8   0.2 65.2   3.3 8   5 12.6   0.1
Smith Valley 5/7/26 80.4   5.9 49.3   5.4 70   15 17   7 4.6   0.9 WNW | 290 24.2   8.8 W | 264 1724 0.00 0.51 1.37 5.8   0.0 66.8   2.5 10   9 12.6   0.0
Pine Grove Mountain 5/7/26 64.8   5.3 49.0   5.0 54   10 23   6 9.2   4.1 WSW | 247 29.2   12.2 WNW | 287 1729 0.00 0.57 0.91 22.3   1.1 60.2   6.8 8   10 12.7   0.0
Paradise Hill 5/7/26 81.7   5.2 45.6   0.7 46   13 15   2 8.4   4.7 WNW | 299 33.4   14.4 W | 272 1426 0.00 0.00 2.33 8.0   0.0 69.9   1.9 6   0 12.6   0.0
Winnemucca 5/7/26 81.2   5.1 53.1   9.2 38   36 14   1 9.0   4.4 SW | 226 34.6   18.8 WSW | 252 1313 0.00 0.00 2.90 6.0   0.0 74.8   5.2 2   1 12.6   0.0
NE Elko 5/7/26 76.4   4.1 37.9   5.2 61   33 18   0 7.0   3.0 W | 277 31.6   8.3 WSW | 251 1244 0.00 0.04 2.33 12.4   0.0 61.8   4.3 6   4 12.6   0.0
North Elko 5/7/26 74.7   5.5 49.1   9.7 51   39 20   2 8.3   2.5 W | 270 34.0   9.4 W | 266 1334 0.00 0.44 2.48 28.4   0.1 64.7   5.7 7   5 12.6   0.1
South Elko 5/7/26 - 55.3   10.5 88   12 19   8 9.1   4.4 W | 270 31.4   10.3 WNW | 296 1459 0.00 0.04 2.71 18.5   0.1 64.9   6.6 6   13 12.6   0.1
Lamoille 1/27/26 42.4   2.7 21.5   6.4 60   0 25   6 2.6   0.5 SE | 125 8.2   4.1 SE | 139 0137 0.00 0.00 0.67 12.3   0.2 26.9   1.3 11   0 8.5   2.8
Reid Gardner Sub 5/7/26 93.6 52.3 45 10 2.3 SSW | 206 11.4 SSE | 165 1740 0.00 0.00 0.56 25.3 79.9 1 12.6
Corn Creek 5/7/26 89.7   6.7 62.1   3.1 29   7 10   6 4.6   4.0 WSW | 237 20.1   3.3 NW | 319 1525 0.00 0.00 0.63 3.9   0.0 80.4   6.0 2   0 12.6   0.0
Lucky Strike 5/7/26 77.5   6.4 57.1   4.2 32   11 10   6 5.3   4.8 WSW | 246 19.8   9.8 NNE | 14 1151 0.00 0.00 1.21 4.5   0.1 72.7   6.2 3   1 12.6   0.0
Lower Angel Peak 5/7/26 72.3   7.0 46.0   3.9 49   12 14   7 4.8   0.6 SW | 218 18.8   6.5 NNW | 328 1232 0.00 0.00 1.93 10.1   0.1 63.7   5.9 3   1 12.6   0.0
Angel Peak 5/7/26 63.4   7.2 46.4   9.8 46   26 17   8 5.7   0.5 NW | 312 27.1   4.1 WNW | 297 0005 0.00 0.02 84.72 3.5   0.1 59.1   8.2 6   1 12.5   0.1
Upper Kyle Canyon 5/7/26 66.5   6.8 44.0   4.8 44   19 16   2 4.5   0.2 NNW | 339 17.0   6.0 WNW | 300 1745 0.00 0.00 5.08 13.5   0.1 62.5   3.3 6   1 12.7   0.0
Mt Charleston 5/7/26 66.9   6.3 46.2   7.6 44   21 19   2 2.6   0.2 WSW | 255 13.4   6.2 ESE | 102 1059 0.00 0.00 5.28 18.2   0.0 63.6   4.7 28   1 12.6   0.0
Mid Kyle Canyon 5/7/26 72.6   6.3 48.8   7.3 40   21 17   2 8.0   0.4 NNW | 344 20.2   5.1 ESE | 121 1525 0.00 0.00 2.08 7.0   0.0 71.2   8.9 6   1 12.8   0.1
Blue Diamond 5/7/26 87.0   7.8 50.1   5.8 42   2 11   9 3.9   0.9 WNW | 302 18.5   0.2 W | 278 1947 0.00 0.00 0.85 3.1   0.1 75.9 4 12.6   0.2
Artesian Sub 5/7/26 95.5   7.7 66.4   2.8 27   11 10   7 1.6   0.4 E | 79 10.7   2.0 SSE | 151 1741 0.00 0.00 0.35 13.2   0.0 - 0   0 12.7   0.0
North Henderson 5/7/26 94.5   7.1 65.3   2.6 37   1 10   7 2.5   0.9 NE | 55 12.3   3.8 NW | 324 1506 0.00 0.00 0.52 8.8   0.0 85.0   5.2 5   0 12.7   0.0
Sandy Valley 5/7/26 90.0   8.0 59.3   5.8 38   16 14   8 4.9   1.0 NW | 308 19.1   2.5 WSW | 244 1506 0.00 0.00 0.62 4.5   0.1 86.5   13.5 3   1 12.7   0.0
Searchlight 5/7/26 86.9   8.7 56.2   8.4 36   23 12   7 5.6   1.7 N | 9 22.6   0.7 NNE | 28 1340 0.00 0.00 0.51 4.7   0.1 78.2   6.3 1   1 12.6   0.1
Laughlin 5/7/26 99.7   7.4 68.9   6.5 34   12 8   5 7.7   4.1 N | 1 23.0   4.2 N | 4 1304 0.00 0.00 0.29 4.2   0.1 94.6   15.1 3   1 12.8   0.0
31Mission Hills 5/7/26 91.2   7.6 67.9   8.2 22   16 11   5 4.5   1.5 NNW | 344 17.9   4.0 N | 5 1550 0.00 - 0.00 3.8   0.0 84.5   6.7 6   1 13.2   0.1
32 Enterprise Sierra Cliffs 5/7/26 88.8   7.1 66.9   6.0 26   9 10   7 6.5   0.7 SW | 236 18.5   3.7 WSW | 253 0040 0.00 - 0.00 2.3   0.0 81.7   7.2 6   0 13.1   0.1
Max   99.7 68.9 98 52 18.4 - 37.6 - - 0.01 - 84.72 45.0 94.6 28 13.2
Avg   - - - - 5.5 - - - - - - - 13.4 62.7 8 -
Min   61.8 36.9 22 8 0.0 - 6.6 - - 0.00 - 0.00 1.8 -17.7 0 12.3

Fosberg 6Hr Max

Map

Hourly Data

Fosberg 6Hr Max

Map

Hourly Data